createdAt,value
2023-11-04T00:01:41.642Z,3.67
2023-11-04T00:03:47.053Z,4.85
2023-11-04T00:05:51.931Z,4.47
2023-11-04T00:07:59.423Z,5.22
2023-11-04T00:10:04.472Z,5.47
2023-11-04T00:12:07.488Z,4.30
2023-11-04T00:14:12.314Z,4.80
2023-11-04T00:16:17.063Z,4.38
2023-11-04T00:18:24.969Z,4.68
2023-11-04T00:20:39.335Z,4.57
2023-11-04T00:22:50.166Z,4.50
2023-11-04T00:24:55.819Z,4.63
2023-11-04T00:27:00.733Z,4.80
2023-11-04T00:29:06.491Z,4.47
2023-11-04T00:31:12.975Z,4.80
2023-11-04T00:33:18.332Z,4.45
2023-11-04T00:35:26.609Z,4.70
2023-11-04T00:37:28.874Z,5.18
2023-11-04T00:39:33.675Z,5.18
2023-11-04T00:41:36.096Z,5.28
2023-11-04T00:43:41.012Z,5.25
2023-11-04T00:45:45.923Z,5.47
2023-11-04T00:47:50.843Z,5.35
2023-11-04T00:49:59.912Z,5.85
2023-11-04T00:52:10.693Z,5.68
2023-11-04T00:54:12.894Z,5.60
2023-11-04T00:56:17.773Z,5.25
2023-11-04T00:58:22.583Z,5.55
2023-11-04T01:00:28.251Z,5.72
2023-11-04T01:02:33.429Z,6.25
2023-11-04T01:04:38.289Z,5.90
2023-11-04T01:06:43.420Z,5.30
2023-11-04T01:08:51.288Z,5.60
2023-11-04T01:10:56.670Z,5.38
2023-11-04T01:13:01.660Z,5.32
2023-11-04T01:15:07.049Z,5.68
2023-11-04T01:17:09.560Z,5.85
2023-11-04T01:19:15.945Z,5.53
2023-11-04T01:21:21.631Z,5.65
2023-11-04T01:23:26.504Z,5.35
2023-11-04T01:25:34.132Z,6.70
2023-11-04T01:27:36.799Z,6.88
2023-11-04T01:29:41.817Z,5.97
2023-11-04T01:31:46.626Z,6.70
2023-11-04T01:33:49.153Z,5.85
2023-11-04T01:35:54.200Z,5.60
2023-11-04T01:37:59.078Z,5.88
2023-11-04T01:40:04.352Z,6.28
2023-11-04T01:42:12.246Z,6.85
2023-11-04T01:44:17.126Z,7.40
2023-11-04T01:46:26.547Z,7.97
2023-11-04T01:48:29.015Z,7.15
2023-11-04T01:50:34.363Z,6.15
2023-11-04T01:52:42.030Z,7.35
2023-11-04T01:54:47.092Z,6.40
2023-11-04T01:56:52.777Z,7.40
2023-11-04T01:59:02.375Z,7.50
2023-11-04T02:01:05.572Z,6.25
2023-11-04T02:03:10.845Z,7.63
2023-11-04T02:05:16.475Z,7.10
2023-11-04T02:07:18.719Z,7.03
2023-11-04T02:09:23.644Z,7.68
2023-11-04T02:11:28.604Z,6.68
2023-11-04T02:13:33.500Z,6.72
2023-11-04T02:15:41.187Z,7.32
2023-11-04T02:17:46.199Z,6.55
2023-11-04T02:19:51.130Z,6.55
2023-11-04T02:21:56.716Z,7.15
2023-11-04T02:24:01.654Z,8.55
2023-11-04T02:26:09.397Z,7.15
2023-11-04T02:28:11.891Z,6.40
2023-11-04T02:30:17.393Z,6.13
2023-11-04T02:32:22.371Z,5.72
2023-11-04T02:34:27.313Z,7.10
2023-11-04T02:36:37.566Z,6.10
2023-11-04T02:38:45.327Z,6.22
2023-11-04T02:40:50.467Z,6.45
2023-11-04T02:42:55.674Z,5.90
2023-11-04T02:44:57.954Z,6.18
2023-11-04T02:47:02.865Z,6.85
2023-11-04T02:49:07.759Z,5.18
2023-11-04T02:51:12.564Z,6.68
2023-11-04T02:53:17.564Z,5.55
2023-11-04T02:55:25.282Z,6.32
2023-11-04T02:57:27.655Z,6.18
2023-11-04T02:59:32.588Z,6.97
2023-11-04T03:01:37.661Z,5.72
2023-11-04T03:03:42.525Z,6.28
2023-11-04T03:05:47.680Z,6.07
2023-11-04T03:07:52.484Z,6.63
2023-11-04T03:09:57.379Z,5.85
2023-11-04T03:12:04.968Z,6.30
2023-11-04T03:14:09.836Z,7.05
2023-11-04T03:16:22.637Z,5.97
2023-11-04T03:18:27.547Z,7.20
2023-11-04T03:20:32.513Z,6.18
2023-11-04T03:22:37.895Z,6.13
2023-11-04T03:24:44.143Z,7.28
2023-11-04T03:26:49.479Z,6.88
2023-11-04T03:28:56.932Z,6.03
2023-11-04T03:31:01.869Z,6.30
2023-11-04T03:33:07.431Z,6.88
2023-11-04T03:35:13.499Z,7.10
2023-11-04T03:37:18.424Z,7.00
2023-11-04T03:39:23.386Z,7.88
2023-11-04T03:41:28.376Z,8.98
2023-11-04T03:43:33.253Z,9.10
2023-11-04T03:45:41.187Z,7.63
2023-11-04T03:47:46.180Z,8.73
2023-11-04T03:49:51.211Z,7.70
2023-11-04T03:51:58.217Z,8.32
2023-11-04T03:54:00.977Z,6.35
2023-11-04T03:56:09.601Z,7.95
2023-11-04T03:58:16.382Z,7.00
2023-11-04T04:00:21.947Z,8.20
2023-11-04T04:02:29.325Z,6.38
2023-11-04T04:04:36.546Z,6.75
2023-11-04T04:06:38.959Z,6.85
2023-11-04T04:08:43.791Z,6.00
2023-11-04T04:10:48.561Z,5.97
2023-11-04T04:12:53.612Z,5.88
2023-11-04T04:14:58.573Z,6.35
2023-11-04T04:17:06.297Z,6.30
2023-11-04T04:19:13.995Z,8.18
2023-11-04T04:21:18.076Z,7.10
2023-11-04T04:23:23.140Z,7.53
2023-11-04T04:25:28.150Z,6.70
2023-11-04T04:27:33.211Z,7.70
2023-11-04T04:29:38.132Z,7.60
2023-11-04T04:31:44.100Z,7.57
2023-11-04T04:33:49.636Z,7.32
2023-11-04T04:35:57.370Z,6.63
2023-11-04T04:38:02.638Z,7.05
2023-11-04T04:40:09.010Z,8.30
2023-11-04T04:42:13.845Z,8.80
2023-11-04T04:44:20.494Z,7.15
2023-11-04T04:46:25.419Z,7.15
2023-11-04T04:48:31.417Z,7.70
2023-11-04T04:50:36.575Z,6.88
2023-11-04T04:52:44.013Z,7.32
2023-11-04T04:54:48.912Z,7.88
2023-11-04T04:56:54.011Z,7.07
2023-11-04T04:58:56.248Z,7.57
2023-11-04T05:01:04.220Z,8.25
2023-11-04T05:03:09.428Z,8.77
2023-11-04T05:05:15.854Z,7.90
2023-11-04T05:07:20.928Z,8.20
2023-11-04T05:09:28.318Z,7.45
2023-11-04T05:11:33.189Z,7.50
2023-11-04T05:13:38.164Z,7.20
2023-11-04T05:15:43.125Z,7.60
2023-11-04T05:17:46.999Z,6.75
2023-11-04T05:19:53.805Z,7.13
2023-11-04T05:21:58.963Z,7.63
2023-11-04T05:24:04.003Z,8.45
2023-11-04T05:26:14.452Z,7.10
2023-11-04T05:28:18.969Z,7.18
2023-11-04T05:30:23.928Z,7.35
2023-11-04T05:32:29.038Z,8.23
2023-11-04T05:34:31.244Z,7.68
2023-11-04T05:36:36.225Z,7.40
2023-11-04T05:38:41.334Z,7.28
2023-11-04T05:40:46.257Z,8.98
2023-11-04T05:42:53.981Z,8.00
2023-11-04T05:44:59.232Z,8.95
2023-11-04T05:47:04.055Z,7.20
2023-11-04T05:49:09.103Z,6.55
2023-11-04T05:51:13.910Z,7.60
2023-11-04T05:53:19.044Z,8.13
2023-11-04T05:55:24.581Z,7.63
2023-11-04T05:57:29.481Z,7.85
2023-11-04T05:59:36.984Z,6.95
2023-11-04T06:01:39.227Z,7.68
2023-11-04T06:03:44.186Z,8.70
2023-11-04T06:05:53.052Z,7.18
2023-11-04T06:07:58.604Z,7.05
2023-11-04T06:10:00.894Z,6.60
2023-11-04T06:12:07.179Z,6.93
2023-11-04T06:14:12.146Z,6.93
2023-11-04T06:16:20.275Z,6.93
2023-11-04T06:18:25.317Z,7.70
2023-11-04T06:20:31.967Z,6.40
2023-11-04T06:22:34.342Z,7.03
2023-11-04T06:24:41.261Z,5.90
2023-11-04T06:26:46.292Z,7.43
2023-11-04T06:28:51.209Z,6.10
2023-11-04T06:30:56.194Z,5.80
2023-11-04T06:33:03.984Z,6.18
2023-11-04T06:35:12.024Z,6.75
2023-11-04T06:37:17.339Z,6.22
2023-11-04T06:39:22.682Z,6.05
2023-11-04T06:41:28.258Z,6.45
2023-11-04T06:43:30.975Z,5.45
2023-11-04T06:45:36.204Z,6.70
2023-11-04T06:47:41.969Z,6.38
2023-11-04T06:49:50.117Z,6.75
2023-11-04T06:51:57.139Z,6.18
2023-11-04T06:54:02.128Z,5.80
2023-11-04T06:56:07.883Z,5.15
2023-11-04T06:58:13.012Z,5.70
2023-11-04T07:00:19.333Z,5.53
2023-11-04T07:02:25.554Z,5.90
2023-11-04T07:04:30.519Z,5.97
2023-11-04T07:06:38.659Z,6.05
2023-11-04T07:08:44.409Z,7.13
2023-11-04T07:10:50.133Z,6.85
2023-11-04T07:12:55.448Z,7.22
2023-11-04T07:15:00.630Z,6.03
2023-11-04T07:17:06.388Z,6.72
2023-11-04T07:19:11.398Z,7.45
2023-11-04T07:21:16.421Z,6.70
2023-11-04T07:23:22.099Z,7.45
2023-11-04T07:25:27.022Z,6.72
2023-11-04T07:27:32.230Z,6.95
2023-11-04T07:29:37.071Z,6.03
2023-11-04T07:31:41.906Z,5.13
2023-11-04T07:33:46.953Z,5.88
2023-11-04T07:35:49.589Z,7.32
2023-11-04T07:37:54.538Z,5.53
2023-11-04T07:40:02.049Z,6.65
2023-11-04T07:42:07.392Z,5.97
2023-11-04T07:44:12.925Z,7.07
2023-11-04T07:46:17.937Z,6.43
2023-11-04T07:48:23.086Z,6.60
2023-11-04T07:50:25.528Z,6.30
2023-11-04T07:52:40.102Z,6.78
2023-11-04T07:54:51.352Z,6.05
2023-11-04T07:56:59.064Z,6.88
2023-11-04T07:59:04.245Z,6.15
2023-11-04T08:01:09.983Z,6.93
2023-11-04T08:03:15.002Z,6.90
2023-11-04T08:05:20.474Z,7.00
2023-11-04T08:07:25.482Z,7.20
2023-11-04T08:09:32.757Z,6.40
2023-11-04T08:11:39.890Z,6.70
2023-11-04T08:13:47.738Z,6.50
2023-11-04T08:15:54.745Z,6.65
2023-11-04T08:18:01.486Z,6.65
2023-11-04T08:20:10.066Z,8.13
2023-11-04T08:22:18.246Z,6.68
2023-11-04T08:24:26.631Z,6.22
2023-11-04T08:26:30.126Z,5.85
2023-11-04T08:28:35.752Z,5.00
2023-11-04T08:30:44.577Z,4.88
2023-11-04T08:32:49.527Z,4.82
2023-11-04T08:34:56.064Z,5.05
2023-11-04T08:37:00.990Z,3.80
2023-11-04T08:39:08.498Z,4.53
2023-11-04T08:41:13.478Z,5.13
2023-11-04T08:43:19.789Z,4.20
2023-11-04T08:45:25.991Z,5.18
2023-11-04T08:47:35.649Z,4.78
2023-11-04T08:49:40.754Z,3.47
2023-11-04T08:51:48.489Z,3.78
2023-11-04T08:53:55.844Z,4.00
2023-11-04T08:56:02.511Z,3.97
2023-11-04T08:58:07.582Z,3.05
2023-11-04T09:00:14.299Z,3.03
2023-11-04T09:02:19.319Z,3.38
2023-11-04T09:04:28.790Z,5.03
2023-11-04T09:06:34.025Z,4.03
2023-11-04T09:08:36.935Z,3.72
2023-11-04T09:12:46.454Z,3.13
2023-11-04T09:14:51.965Z,3.17
2023-11-04T09:16:57.308Z,3.65
2023-11-04T09:19:02.986Z,3.13
2023-11-04T09:21:10.768Z,2.88
2023-11-04T09:23:20.410Z,3.28
2023-11-04T09:25:28.898Z,2.88
2023-11-04T09:27:33.768Z,2.75
2023-11-04T09:29:38.709Z,2.92
2023-11-04T09:31:41.098Z,3.10
2023-11-04T09:33:46.261Z,3.38
2023-11-04T09:35:51.598Z,3.15
2023-11-04T09:37:59.014Z,2.67
2023-11-04T09:40:04.773Z,2.85
2023-11-04T09:42:17.027Z,2.92
2023-11-04T09:44:22.227Z,2.80
2023-11-04T09:46:27.817Z,3.90
2023-11-04T09:48:34.198Z,4.03
2023-11-04T09:50:39.426Z,3.38
2023-11-04T09:52:43.682Z,3.65
2023-11-04T09:54:52.547Z,2.80
2023-11-04T09:56:59.641Z,3.33
2023-11-04T09:59:05.926Z,3.70
2023-11-04T10:01:10.826Z,2.47
2023-11-04T10:03:17.335Z,3.08
2023-11-04T10:05:22.697Z,2.63
2023-11-04T10:07:27.986Z,2.38
2023-11-04T10:09:33.729Z,3.22
2023-11-04T10:11:41.234Z,2.55
2023-11-04T10:13:46.259Z,2.67
2023-11-04T10:15:51.283Z,3.40
2023-11-04T10:17:56.330Z,2.40
2023-11-04T10:20:01.987Z,2.80
2023-11-04T10:22:08.105Z,3.53
2023-11-04T10:24:13.562Z,2.67
2023-11-04T10:26:19.557Z,3.28
2023-11-04T10:28:27.443Z,2.97
2023-11-04T10:30:32.340Z,2.60
2023-11-04T10:32:39.306Z,2.50
2023-11-04T10:34:51.340Z,3.25
2023-11-04T10:37:14.327Z,2.90
2023-11-04T10:39:25.090Z,3.20
2023-11-04T10:41:35.010Z,2.92
2023-11-04T10:43:52.081Z,2.67
2023-11-04T10:46:03.935Z,2.78
2023-11-04T10:48:18.697Z,2.60
2023-11-04T10:50:28.512Z,2.88
2023-11-04T10:52:38.714Z,3.42
2023-11-04T10:54:46.671Z,2.45
2023-11-04T10:56:58.922Z,2.50
2023-11-04T10:59:12.187Z,2.40
2023-11-04T11:01:17.937Z,1.90
2023-11-04T11:03:24.646Z,2.45
2023-11-04T11:05:34.328Z,2.13
2023-11-04T11:07:41.345Z,1.90
2023-11-04T11:09:49.363Z,2.38
2023-11-04T11:12:02.647Z,1.70
2023-11-04T11:14:10.712Z,1.98
2023-11-04T11:16:18.047Z,2.22
2023-11-04T11:18:32.427Z,2.50
2023-11-04T11:20:39.016Z,2.30
2023-11-04T11:22:43.850Z,2.15
2023-11-04T11:24:53.637Z,2.72
2023-11-04T11:27:02.765Z,2.30
2023-11-04T11:29:07.601Z,2.42
2023-11-04T11:31:14.437Z,1.92
2023-11-04T11:33:31.572Z,2.50
2023-11-04T11:35:55.564Z,2.00
2023-11-04T11:38:00.420Z,2.08
2023-11-04T11:40:13.505Z,3.38
2023-11-04T11:42:19.046Z,2.13
2023-11-04T11:44:26.349Z,2.15
2023-11-04T11:46:31.360Z,2.67
2023-11-04T11:48:39.712Z,2.10
2023-11-04T11:50:45.167Z,2.05
2023-11-04T11:52:50.457Z,2.47
2023-11-04T11:54:56.124Z,2.08
2023-11-04T11:57:01.353Z,2.00
2023-11-04T11:59:08.347Z,2.17
2023-11-04T12:01:16.110Z,2.50
2023-11-04T12:03:19.123Z,1.88
2023-11-04T12:05:24.080Z,2.70
2023-11-04T12:07:29.960Z,1.85
2023-11-04T12:09:37.934Z,1.83
2023-11-04T12:11:42.836Z,2.17
2023-11-04T12:13:47.673Z,2.22
2023-11-04T12:15:52.719Z,2.15
2023-11-04T12:18:04.343Z,1.77
2023-11-04T12:20:11.171Z,2.13
2023-11-04T12:22:19.657Z,2.20
2023-11-04T12:24:24.601Z,1.80
2023-11-04T12:26:38.060Z,2.20
2023-11-04T12:28:43.954Z,1.67
2023-11-04T12:30:49.404Z,1.60
2023-11-04T12:32:55.440Z,2.63
2023-11-04T12:35:03.052Z,1.67
2023-11-04T12:37:09.316Z,1.80
2023-11-04T12:39:14.717Z,2.28
2023-11-04T12:41:22.796Z,1.90
2023-11-04T12:43:29.325Z,1.75
2023-11-04T12:45:37.344Z,2.10
2023-11-04T12:47:43.054Z,1.92
2023-11-04T12:49:45.351Z,1.83
2023-11-04T12:51:52.828Z,1.90
2023-11-04T12:53:57.886Z,1.95
2023-11-04T12:56:02.813Z,2.08
2023-11-04T12:58:07.793Z,2.33
2023-11-04T13:00:14.430Z,1.70
2023-11-04T13:02:19.882Z,2.00
2023-11-04T13:04:26.976Z,1.80
2023-11-04T13:06:33.200Z,1.83
2023-11-04T13:08:41.070Z,1.77
2023-11-04T13:10:46.385Z,2.75
2023-11-04T13:12:51.302Z,1.83
2023-11-04T13:14:53.654Z,2.70
2023-11-04T13:16:58.950Z,2.28
2023-11-04T13:19:04.013Z,1.65
2023-11-04T13:21:10.856Z,1.88
2023-11-04T13:23:19.458Z,2.10
2023-11-04T13:25:24.810Z,1.48
2023-11-04T13:27:29.738Z,2.08
2023-11-04T13:29:37.548Z,2.53
2023-11-04T13:31:42.350Z,1.98
2023-11-04T13:33:47.484Z,2.03
2023-11-04T13:35:52.394Z,2.10
2023-11-04T13:37:57.321Z,2.40
2023-11-04T13:40:02.610Z,1.98
2023-11-04T13:42:10.792Z,2.75
2023-11-04T13:44:17.560Z,2.75
2023-11-04T13:46:22.409Z,2.30
2023-11-04T13:48:27.439Z,3.05
2023-11-04T13:50:32.379Z,2.33
2023-11-04T13:52:37.689Z,2.80
2023-11-04T13:54:42.711Z,2.47
2023-11-04T13:56:45.145Z,2.35
2023-11-04T13:58:52.750Z,2.55
2023-11-04T14:01:00.672Z,2.40
2023-11-04T14:03:06.223Z,2.20
2023-11-04T14:05:11.305Z,2.45
2023-11-04T14:07:16.753Z,2.25
2023-11-04T14:09:21.729Z,2.40
2023-11-04T14:11:27.194Z,2.50
2023-11-04T14:13:32.114Z,2.88
2023-11-04T14:15:39.732Z,2.25
2023-11-04T14:17:45.898Z,2.55
2023-11-04T14:19:50.852Z,2.60
2023-11-04T14:21:56.588Z,2.33
2023-11-04T14:24:01.821Z,2.35
2023-11-04T14:26:10.073Z,3.10
2023-11-04T14:28:16.174Z,2.70
2023-11-04T14:30:23.496Z,2.85
2023-11-04T14:32:31.154Z,2.40
2023-11-04T14:34:36.224Z,2.25
2023-11-04T14:36:41.174Z,2.60
2023-11-04T14:38:46.071Z,2.38
2023-11-04T14:40:51.027Z,2.80
2023-11-04T14:42:55.932Z,2.00
2023-11-04T14:45:00.980Z,2.42
2023-11-04T14:47:05.899Z,2.40
2023-11-04T14:49:13.669Z,2.42
2023-11-04T14:51:16.620Z,2.90
2023-11-04T14:55:29.944Z,2.60
2023-11-04T14:57:35.233Z,3.10
2023-11-04T14:59:40.076Z,2.50
2023-11-04T15:01:49.525Z,2.80
2023-11-04T15:03:55.407Z,2.63
2023-11-04T15:06:00.476Z,2.92
2023-11-04T15:08:05.303Z,2.95
2023-11-04T15:10:11.441Z,3.40
2023-11-04T15:12:17.643Z,5.13
2023-11-04T15:14:22.473Z,4.00
2023-11-04T15:16:27.387Z,3.15
2023-11-04T15:18:33.014Z,3.33
2023-11-04T15:20:38.061Z,4.05
2023-11-04T15:22:45.533Z,3.42
2023-11-04T15:24:50.913Z,4.10
2023-11-04T15:26:55.912Z,4.20
2023-11-04T15:29:00.760Z,4.03
2023-11-04T15:31:05.908Z,3.53
2023-11-04T15:33:13.087Z,3.45
2023-11-04T15:35:19.939Z,4.45
2023-11-04T15:37:24.992Z,3.72
2023-11-04T15:39:30.014Z,3.38
2023-11-04T15:41:38.232Z,4.20
2023-11-04T15:43:43.365Z,3.72
2023-11-04T15:45:48.403Z,3.78
2023-11-04T15:47:53.738Z,4.85
2023-11-04T15:49:59.882Z,3.05
2023-11-04T15:52:04.918Z,3.03
2023-11-04T15:54:10.837Z,3.55
2023-11-04T15:56:20.399Z,4.25
2023-11-04T15:58:22.887Z,3.08
2023-11-04T16:00:27.721Z,3.70
2023-11-04T16:02:32.754Z,3.65
2023-11-04T16:04:37.909Z,3.40
2023-11-04T16:06:42.837Z,3.55
2023-11-04T16:08:47.754Z,3.45
2023-11-04T16:10:52.535Z,3.55
2023-11-04T16:13:00.307Z,3.65
2023-11-04T16:15:07.208Z,3.63
2023-11-04T16:17:12.066Z,3.83
2023-11-04T16:19:20.404Z,3.65
2023-11-04T16:21:25.299Z,3.63
2023-11-04T16:23:34.342Z,3.78
2023-11-04T16:25:39.132Z,3.17
2023-11-04T16:27:44.204Z,4.68
2023-11-04T16:29:51.751Z,4.45
2023-11-04T16:31:56.978Z,4.63
2023-11-04T16:34:01.741Z,4.30
2023-11-04T16:36:04.968Z,4.43
2023-11-04T16:38:10.166Z,5.47
2023-11-04T16:40:16.283Z,4.72
2023-11-04T16:42:21.173Z,4.53
2023-11-04T16:44:26.224Z,5.07
2023-11-04T16:46:33.702Z,4.60
2023-11-04T16:48:39.063Z,4.35
2023-11-04T16:50:44.389Z,3.97
2023-11-04T16:52:49.237Z,3.63
2023-11-04T16:54:51.587Z,3.20
2023-11-04T16:56:56.691Z,3.70
2023-11-04T16:59:01.571Z,3.35
2023-11-04T17:01:07.526Z,3.75
2023-11-04T17:03:16.245Z,3.03
2023-11-04T17:05:21.452Z,3.30
2023-11-04T17:07:26.426Z,3.35
2023-11-04T17:09:32.004Z,4.00
2023-11-04T17:11:36.949Z,3.47
2023-11-04T17:13:45.725Z,3.72
2023-11-04T17:15:50.811Z,3.70
2023-11-04T17:17:55.902Z,3.25
2023-11-04T17:20:03.833Z,3.60
2023-11-04T17:22:09.783Z,2.83
2023-11-04T17:24:14.787Z,2.10
2023-11-04T17:26:22.695Z,1.95
2023-11-04T17:28:27.626Z,1.65
2023-11-04T17:30:33.000Z,2.00
2023-11-04T17:32:38.009Z,2.42
2023-11-04T17:34:43.185Z,2.00
2023-11-04T17:36:50.744Z,2.00
2023-11-04T17:38:55.690Z,2.20
2023-11-04T17:41:00.622Z,2.28
2023-11-04T17:43:06.254Z,1.80
2023-11-04T17:45:13.448Z,1.83
2023-11-04T17:47:18.671Z,2.40
2023-11-04T17:49:20.959Z,1.95
2023-11-04T17:51:27.218Z,2.60
2023-11-04T17:53:35.192Z,2.55
2023-11-04T17:55:40.035Z,2.42
2023-11-04T17:57:45.165Z,2.58
2023-11-04T17:59:48.020Z,2.35
2023-11-04T18:03:57.657Z,2.50
2023-11-04T18:06:02.832Z,2.95
2023-11-04T18:08:10.871Z,2.58
2023-11-04T18:10:21.960Z,2.40
2023-11-04T18:12:27.526Z,2.20
2023-11-04T18:14:32.394Z,2.30
2023-11-04T18:16:37.207Z,2.60
2023-11-04T18:18:42.327Z,2.47
2023-11-04T18:20:47.401Z,2.42
2023-11-04T18:22:52.463Z,3.35
2023-11-04T18:24:57.393Z,2.90
2023-11-04T18:27:08.327Z,2.55
2023-11-04T18:29:13.428Z,2.38
2023-11-04T18:31:21.266Z,2.42
2023-11-04T18:33:26.195Z,2.45
2023-11-04T18:35:31.320Z,2.55
2023-11-04T18:37:36.822Z,2.80
2023-11-04T18:39:41.954Z,1.80
2023-11-04T18:41:47.270Z,3.10
2023-11-04T18:43:52.261Z,3.00
2023-11-04T18:45:57.521Z,2.90
2023-11-04T18:48:02.917Z,2.92
2023-11-04T18:50:09.137Z,2.45
2023-11-04T18:52:14.605Z,3.15
2023-11-04T18:54:22.329Z,2.95
2023-11-04T18:56:27.248Z,2.75
2023-11-04T18:58:32.093Z,3.25
2023-11-04T19:00:40.274Z,2.83
2023-11-04T19:02:45.463Z,2.80
2023-11-04T19:04:50.768Z,2.33
2023-11-04T19:06:55.976Z,2.25
2023-11-04T19:09:01.149Z,4.15
2023-11-04T19:11:09.161Z,2.70
2023-11-04T19:13:14.201Z,2.88
2023-11-04T19:15:19.202Z,2.30
2023-11-04T19:17:26.791Z,3.30
2023-11-04T19:19:31.860Z,3.08
2023-11-04T19:21:36.968Z,2.72
2023-11-04T19:23:41.797Z,3.08
2023-11-04T19:25:47.796Z,3.90
2023-11-04T19:27:52.838Z,4.07
2023-11-04T19:29:58.552Z,3.80
2023-11-04T19:32:03.771Z,4.30
2023-11-04T19:34:11.288Z,4.20
2023-11-04T19:36:16.148Z,3.50
2023-11-04T19:38:18.914Z,4.47
2023-11-04T19:42:28.600Z,3.92
2023-11-04T19:44:35.033Z,4.80
2023-11-04T19:46:43.893Z,3.95
2023-11-04T19:48:51.925Z,4.15
2023-11-04T19:51:00.717Z,3.97
2023-11-04T19:53:05.684Z,3.42
2023-11-04T19:55:10.928Z,3.75
2023-11-04T19:57:16.189Z,4.28
2023-11-04T19:59:21.182Z,4.47
2023-11-04T20:01:26.181Z,4.63
2023-11-04T20:03:31.168Z,3.60
2023-11-04T20:05:36.372Z,3.53
2023-11-04T20:07:43.854Z,3.65
2023-11-04T20:09:49.388Z,4.65
2023-11-04T20:11:54.482Z,3.05
2023-11-04T20:13:59.648Z,3.20
2023-11-04T20:16:05.424Z,2.17
2023-11-04T20:18:10.511Z,3.10
2023-11-04T20:20:16.113Z,4.03
2023-11-04T20:22:18.568Z,3.95
2023-11-04T20:24:26.974Z,3.42
2023-11-04T20:26:32.073Z,3.63
2023-11-04T20:28:36.936Z,4.07
2023-11-04T20:30:41.985Z,3.75
2023-11-04T20:32:47.466Z,3.55
2023-11-04T20:34:52.378Z,4.93
2023-11-04T20:36:54.732Z,4.75
2023-11-04T20:39:00.173Z,4.82
2023-11-04T20:41:08.430Z,4.50
2023-11-04T20:43:13.444Z,3.90
2023-11-04T20:45:20.959Z,3.83
2023-11-04T20:47:25.941Z,3.97
2023-11-04T20:49:29.183Z,4.03
2023-11-04T20:51:36.484Z,3.97
2023-11-04T20:53:41.421Z,3.80
2023-11-04T20:55:46.368Z,4.13
2023-11-04T20:57:54.102Z,4.10
2023-11-04T20:59:59.167Z,3.25
2023-11-04T21:02:04.403Z,5.32
2023-11-04T21:04:06.920Z,5.25
2023-11-04T21:06:12.666Z,4.38
2023-11-04T21:08:17.586Z,4.32
2023-11-04T21:10:23.015Z,3.60
2023-11-04T21:12:28.575Z,4.38
2023-11-04T21:14:38.409Z,3.58
2023-11-04T21:16:43.692Z,3.78
2023-11-04T21:18:49.758Z,3.88
2023-11-04T21:20:54.725Z,4.22
2023-11-04T21:23:03.852Z,5.05
2023-11-04T21:25:10.958Z,4.70
2023-11-04T21:27:16.067Z,4.13
2023-11-04T21:29:21.237Z,4.90
2023-11-04T21:31:28.834Z,3.95
2023-11-04T21:33:33.949Z,4.88
2023-11-04T21:35:38.898Z,4.95
2023-11-04T21:37:43.938Z,3.78
2023-11-04T21:39:48.950Z,3.17
2023-11-04T21:41:54.626Z,3.08
2023-11-04T21:44:03.998Z,3.70
2023-11-04T21:46:10.532Z,3.33
2023-11-04T21:48:18.272Z,3.50
2023-11-04T21:50:23.195Z,3.50
2023-11-04T21:52:28.155Z,3.28
2023-11-04T21:54:33.194Z,3.53
2023-11-04T21:56:38.215Z,3.42
2023-11-04T21:58:43.120Z,3.55
2023-11-04T22:00:46.165Z,3.05
2023-11-04T22:02:51.119Z,3.38
2023-11-04T22:04:58.881Z,2.67
2023-11-04T22:07:04.383Z,3.75
2023-11-04T22:09:06.964Z,3.40
2023-11-04T22:11:11.858Z,4.82
2023-11-04T22:13:17.321Z,3.35
2023-11-04T22:15:22.573Z,3.17
2023-11-04T22:17:27.443Z,3.60
2023-11-04T22:19:32.502Z,3.70
2023-11-04T22:21:40.139Z,3.20
2023-11-04T22:23:47.729Z,3.55
2023-11-04T22:25:52.932Z,3.10
2023-11-04T22:27:57.180Z,3.53
2023-11-04T22:30:04.661Z,3.63
2023-11-04T22:32:10.575Z,3.05
2023-11-04T22:34:17.461Z,3.10
2023-11-04T22:36:22.492Z,3.92
2023-11-04T22:38:29.957Z,3.75
2023-11-04T22:40:38.522Z,3.00
2023-11-04T22:42:43.641Z,4.07
2023-11-04T22:44:48.464Z,3.47
2023-11-04T22:46:53.268Z,3.75
2023-11-04T22:48:58.891Z,3.70
2023-11-04T22:51:01.167Z,3.78
2023-11-04T22:53:05.878Z,2.92
2023-11-04T22:55:13.629Z,3.83
2023-11-04T22:57:21.465Z,3.92
2023-11-04T22:59:26.402Z,3.08
2023-11-04T23:01:31.631Z,3.92
2023-11-04T23:03:34.317Z,4.10
2023-11-04T23:05:39.161Z,3.42
2023-11-04T23:07:44.209Z,3.63
2023-11-04T23:09:48.981Z,3.13
2023-11-04T23:11:58.381Z,3.38
2023-11-04T23:14:03.867Z,2.75
2023-11-04T23:16:09.423Z,4.13
2023-11-04T23:18:14.686Z,3.33
2023-11-04T23:20:22.825Z,4.28
2023-11-04T23:22:28.075Z,2.92
2023-11-04T23:24:33.017Z,3.88
2023-11-04T23:26:38.227Z,3.72
2023-11-04T23:28:45.933Z,3.30
2023-11-04T23:30:51.441Z,3.63
2023-11-04T23:32:56.910Z,3.20
2023-11-04T23:35:01.957Z,3.50
2023-11-04T23:37:07.371Z,4.40
2023-11-04T23:39:10.572Z,4.60
2023-11-04T23:41:15.949Z,3.45
2023-11-04T23:43:21.015Z,3.35
2023-11-04T23:45:29.791Z,4.05
2023-11-04T23:47:36.585Z,2.92
2023-11-04T23:49:44.086Z,3.67
2023-11-04T23:51:49.010Z,3.53
2023-11-04T23:53:53.938Z,3.35
2023-11-04T23:55:59.039Z,4.68
2023-11-04T23:58:04.088Z,3.20
